Time;durP1;ratioP1;P1;durP2;ratioP2;P2;SDS_P1;SDS_P2;PMS_P1;PMS_P2;Temp;Humidity;BMP_temperature;BMP_pressure;BME280_temperature;BME280_humidity;BME280_pressure;Samples;Min_cycle;Max_cycle;Signal;HPM_P1;HPM_P2
2023/10/02 00:07:08;;;;;;;12.82;6.18;;;;;;;22.93;100.00;101164.75;20979689;28;20052;-71
2023/10/02 00:17:31;;;;;;;11.48;6.20;;;;;;;22.87;100.00;101163.13;20968246;28;20049;-70
2023/10/02 00:27:56;;;;;;;15.02;6.55;;;;;;;22.80;100.00;101152.56;20976164;28;20049;-71
2023/10/02 00:38:18;;;;;;;16.10;6.57;;;;;;;22.74;100.00;101131.22;20999392;28;20052;-70
2023/10/02 00:48:44;;;;;;;17.98;7.03;;;;;;;22.77;100.00;101128.44;20979663;28;20060;-72
2023/10/02 00:59:14;;;;;;;15.38;6.15;;;;;;;22.79;100.00;101122.06;20972638;28;20045;-71
2023/10/02 01:09:41;;;;;;;11.68;5.88;;;;;;;22.79;100.00;101124.75;20983665;28;20055;-71
2023/10/02 01:20:12;;;;;;;14.30;5.75;;;;;;;22.80;100.00;101110.38;20995529;28;20143;-70
2023/10/02 01:30:40;;;;;;;12.82;5.93;;;;;;;22.78;100.00;101098.75;20971352;28;20064;-71
2023/10/02 01:41:06;;;;;;;10.30;5.43;;;;;;;22.75;100.00;101095.28;20969791;28;20045;-71
2023/10/02 01:51:31;;;;;;;13.70;5.68;;;;;;;22.76;100.00;101089.88;20965426;28;20072;-71
2023/10/02 02:01:57;;;;;;;9.70;5.57;;;;;;;22.75;100.00;101092.59;20991043;28;20102;-71
2023/10/02 02:12:22;;;;;;;12.15;5.82;;;;;;;22.73;100.00;101106.09;20982516;28;20041;-71
2023/10/02 02:22:45;;;;;;;13.70;6.10;;;;;;;22.72;100.00;101093.50;21003694;28;20041;-71
2023/10/02 02:33:12;;;;;;;10.65;5.32;;;;;;;22.75;100.00;101098.84;20977401;28;20072;-71
2023/10/02 02:43:37;;;;;;;12.35;5.78;;;;;;;22.74;100.00;101097.09;20978229;28;20072;-71
2023/10/02 02:54:05;;;;;;;14.57;5.85;;;;;;;22.67;100.00;101104.44;20963770;28;20083;-71
2023/10/02 03:04:29;;;;;;;10.47;5.97;;;;;;;22.66;100.00;101109.84;20960176;28;20040;-71
2023/10/02 03:14:54;;;;;;;15.98;6.32;;;;;;;22.63;100.00;101108.16;20995818;28;20049;-70
2023/10/02 03:25:40;;;;;;;18.58;6.43;;;;;;;22.61;100.00;101092.97;20972921;28;20582;-71
2023/10/02 03:36:09;;;;;;;14.00;6.20;;;;;;;22.60;100.00;101115.41;20981850;28;20056;-71
2023/10/02 03:46:37;;;;;;;14.80;6.57;;;;;;;22.57;100.00;101121.78;20973956;28;20075;-71
2023/10/02 03:57:03;;;;;;;13.93;5.70;;;;;;;22.56;100.00;101119.13;20978903;28;20059;-71
2023/10/02 04:07:27;;;;;;;12.65;6.15;;;;;;;22.55;100.00;101117.34;20984678;28;20060;-71
2023/10/02 04:17:53;;;;;;;14.48;5.82;;;;;;;22.55;100.00;101112.84;20985036;28;20040;-71
2023/10/02 04:28:15;;;;;;;17.08;6.80;;;;;;;22.61;100.00;101128.84;20973470;28;20049;-71
2023/10/02 04:38:49;;;;;;;14.93;6.03;;;;;;;22.74;100.00;101136.59;20966409;28;20140;-70
2023/10/02 04:49:12;;;;;;;13.85;6.13;;;;;;;23.00;100.00;101145.69;21006249;28;20048;-71
2023/10/02 04:59:51;;;;;;;11.07;5.65;;;;;;;23.46;100.00;101141.59;20976818;28;20056;-71
2023/10/02 05:10:13;;;;;;;18.73;6.28;;;;;;;23.64;98.80;101156.31;20982626;28;20690;-71
2023/10/02 05:20:38;;;;;;;16.73;6.10;;;;;;;23.79;91.01;101154.03;20977301;28;20036;-71
2023/10/02 05:31:07;;;;;;;12.77;5.25;;;;;;;23.84;87.11;101168.22;20907064;28;20052;-71
2023/10/02 05:41:41;;;;;;;14.13;5.15;;;;;;;24.58;80.79;101166.63;20997405;28;20552;-70
2023/10/02 05:52:07;;;;;;;10.13;5.03;;;;;;;24.42;78.85;101182.47;20952591;28;20045;-71
2023/10/02 06:02:31;;;;;;;14.70;5.45;;;;;;;24.60;73.88;101192.66;20956552;28;20029;-71
2023/10/02 06:13:02;;;;;;;16.85;4.97;;;;;;;24.87;68.36;101185.38;20964416;28;20052;-71
2023/10/02 06:23:29;;;;;;;9.40;4.97;;;;;;;25.37;67.93;101198.84;20973173;28;20055;-71
2023/10/02 06:33:52;;;;;;;10.63;4.43;;;;;;;26.45;61.87;101202.59;20978925;28;20053;-72
2023/10/02 06:44:18;;;;;;;13.57;4.97;;;;;;;26.61;58.09;101214.50;20950552;28;20052;-71
2023/10/02 06:54:43;;;;;;;13.50;4.80;;;;;;;26.71;58.95;101212.28;20989012;28;20163;-71
2023/10/02 07:05:10;;;;;;;12.20;5.10;;;;;;;26.57;59.76;101218.31;20953207;28;20499;-70
2023/10/02 07:15:34;;;;;;;15.05;5.18;;;;;;;27.03;64.07;101217.19;20958616;28;20052;-71
2023/10/02 07:25:58;;;;;;;16.38;5.00;;;;;;;28.10;60.91;101223.81;20968657;28;20063;-71
2023/10/02 07:36:21;;;;;;;13.90;5.25;;;;;;;28.76;52.92;101224.13;20973754;28;20103;-70
2023/10/02 07:46:55;;;;;;;14.85;5.38;;;;;;;29.03;46.53;101221.78;20973565;28;20389;-70
2023/10/02 07:57:19;;;;;;;12.65;5.07;;;;;;;29.42;47.41;101243.25;20976280;28;20059;-70
2023/10/02 08:07:43;;;;;;;14.60;5.38;;;;;;;29.77;47.16;101236.72;21015327;28;20563;-71
2023/10/02 08:18:16;;;;;;;11.57;4.93;;;;;;;29.73;45.22;101237.88;20927532;28;20569;-71
2023/10/02 08:28:43;;;;;;;11.07;4.43;;;;;;;30.06;43.01;101230.50;20992053;28;20048;-70
2023/10/02 08:39:08;;;;;;;9.98;5.40;;;;;;;30.54;43.57;101249.53;20921967;28;20152;-71
2023/10/02 08:49:34;;;;;;;11.98;4.50;;;;;;;30.70;41.18;101245.81;20939200;28;20071;-70
2023/10/02 09:00:09;;;;;;;;;;;;;;;30.55;41.37;101256.75;20990868;28;20573;-71
2023/10/02 09:10:41;;;;;;;13.90;4.47;;;;;;;30.45;40.69;101237.31;20989030;28;20575;-71
2023/10/02 09:21:15;;;;;;;11.63;4.25;;;;;;;30.29;40.03;101233.75;20972598;28;20500;-70
2023/10/02 09:31:41;;;;;;;19.98;5.03;;;;;;;30.65;40.67;101236.16;21025769;28;20152;-70
2023/10/02 09:42:07;;;;;;;16.15;4.55;;;;;;;30.82;41.25;101227.81;20982216;28;20523;-71
2023/10/02 09:52:39;;;;;;;13.80;4.70;;;;;;;31.09;40.70;101207.06;20967535;28;20045;-71
2023/10/02 10:03:31;;;;;;;18.98;4.95;;;;;;;31.16;42.10;101199.34;20985726;28;20433;-70
2023/10/02 10:13:59;;;;;;;11.55;4.95;;;;;;;31.13;40.41;101211.34;20972310;28;20070;-70
2023/10/02 10:24:56;;;;;;;15.45;5.13;;;;;;;30.98;40.16;101189.56;20962920;28;20467;-70
2023/10/02 10:35:33;;;;;;;16.30;5.03;;;;;;;30.84;40.42;101161.31;20974554;28;20070;-70
2023/10/02 10:45:56;;;;;;;20.13;5.82;;;;;;;30.45;42.16;101152.84;20958556;28;20049;-70
2023/10/02 10:56:22;;;;;;;19.73;5.13;;;;;;;30.31;43.85;101142.78;20949429;28;20094;-70
2023/10/02 11:06:46;;;;;;;12.15;4.57;;;;;;;29.80;43.92;101143.97;20959938;28;20086;-70
2023/10/02 11:17:11;;;;;;;16.67;4.78;;;;;;;29.99;43.74;101141.97;20971538;28;20074;-71
2023/10/02 11:27:35;;;;;;;14.20;4.70;;;;;;;29.84;43.92;101140.09;20937270;28;20061;-70
2023/10/02 11:38:02;;;;;;;16.60;5.57;;;;;;;29.59;44.23;101145.22;20961756;28;20701;-69
2023/10/02 11:48:25;;;;;;;12.65;4.75;;;;;;;29.68;43.87;101142.84;20988763;28;20044;-70
2023/10/02 11:58:50;;;;;;;12.70;5.20;;;;;;;29.45;45.35;101136.97;21003396;28;20067;-71
2023/10/02 12:09:17;;;;;;;15.10;4.78;;;;;;;29.39;45.07;101126.44;20977498;28;20120;-70
2023/10/02 12:19:43;;;;;;;13.30;5.00;;;;;;;29.12;45.97;101113.38;20959414;28;20174;-71
2023/10/02 12:30:11;;;;;;;12.52;5.05;;;;;;;28.89;47.64;101121.91;20974412;28;20052;-71
2023/10/02 12:40:36;;;;;;;12.77;5.25;;;;;;;28.85;47.31;101106.75;21002446;28;20052;-70
2023/10/02 12:51:07;;;;;;;15.70;5.50;;;;;;;28.51;48.50;101110.38;20947117;28;20045;-71
2023/10/02 13:01:32;;;;;;;15.73;6.32;;;;;;;28.29;50.56;101110.63;20969258;28;20056;-70
2023/10/02 13:11:55;;;;;;;16.85;6.53;;;;;;;28.24;52.08;101118.13;20956684;28;20080;-70
2023/10/02 13:22:20;;;;;;;19.25;6.43;;;;;;;28.11;56.30;101084.38;20937146;28;20072;-70
2023/10/02 13:32:43;;;;;;;15.10;5.68;;;;;;;27.87;56.80;101108.25;20825217;28;20061;-69
2023/10/02 13:43:07;;;;;;;13.18;6.07;;;;;;;27.57;55.34;101097.09;20800621;28;20045;-69
2023/10/02 13:53:30;;;;;;;15.45;6.28;;;;;;;27.40;58.13;101106.97;20816333;28;20071;-69
2023/10/02 14:03:56;;;;;;;14.95;7.22;;;;;;;27.30;57.61;101122.84;20796159;28;20049;-69
2023/10/02 14:14:19;;;;;;;21.63;7.20;;;;;;;27.00;57.06;101113.41;20777410;28;20049;-69
2023/10/02 14:24:44;;;;;;;14.07;6.28;;;;;;;26.81;62.06;101116.06;20814347;28;20049;-69
2023/10/02 14:35:08;;;;;;;22.40;7.15;;;;;;;26.60;63.73;101123.34;20955680;28;20065;-68
2023/10/02 14:45:34;;;;;;;17.48;6.78;;;;;;;26.37;69.77;101135.22;20999894;28;20056;-70
2023/10/02 14:55:56;;;;;;;19.80;6.97;;;;;;;26.19;74.58;101149.50;20971492;28;20040;-70
2023/10/02 15:06:21;;;;;;;16.90;7.38;;;;;;;26.06;80.25;101142.84;21020916;28;20040;-70
2023/10/02 15:16:43;;;;;;;20.30;7.55;;;;;;;25.89;88.57;101140.84;21002019;28;20047;-70
2023/10/02 15:27:07;;;;;;;17.92;7.63;;;;;;;25.70;91.28;101156.09;21042637;28;20518;-70
2023/10/02 15:37:30;;;;;;;20.65;7.93;;;;;;;25.53;90.52;101158.56;21015805;28;20043;-70
2023/10/02 15:47:57;;;;;;;25.30;7.40;;;;;;;25.37;91.99;101155.56;21014734;28;20051;-70
2023/10/02 15:58:20;;;;;;;18.20;7.95;;;;;;;25.22;96.29;101158.88;21047814;28;20078;-70
2023/10/02 16:08:44;;;;;;;20.42;8.02;;;;;;;25.08;95.41;101175.59;21013763;28;20047;-71
2023/10/02 16:19:08;;;;;;;20.90;7.85;;;;;;;24.98;95.99;101175.09;21045359;28;20068;-70
2023/10/02 16:29:33;;;;;;;15.70;7.32;;;;;;;24.91;99.87;101178.06;20959920;28;20045;-70
2023/10/02 16:39:59;;;;;;;16.98;8.52;;;;;;;24.81;100.00;101172.06;21011092;28;20052;-69
2023/10/02 16:50:26;;;;;;;19.50;8.43;;;;;;;24.75;100.00;101180.41;20966095;28;20051;-69
2023/10/02 17:00:49;;;;;;;22.85;9.63;;;;;;;24.70;100.00;101192.31;20947448;28;20657;-69
2023/10/02 17:11:15;;;;;;;19.88;9.25;;;;;;;24.67;100.00;101206.81;20946703;28;20687;-70
2023/10/02 17:21:38;;;;;;;20.08;9.43;;;;;;;24.73;100.00;101205.72;20971380;28;20041;-70
2023/10/02 17:32:03;;;;;;;25.40;10.02;;;;;;;24.73;100.00;101206.59;20952662;28;20044;-70
2023/10/02 17:42:25;;;;;;;21.13;8.88;;;;;;;24.64;100.00;101220.41;20964965;28;20086;-70
2023/10/02 17:52:50;;;;;;;19.73;9.48;;;;;;;24.60;100.00;101227.75;20965652;28;20469;-70
2023/10/02 18:03:13;;;;;;;17.45;8.23;;;;;;;24.58;100.00;101226.03;20950484;28;20050;-70
2023/10/02 18:13:37;;;;;;;23.63;8.98;;;;;;;24.56;100.00;101238.69;20950249;28;20061;-69
2023/10/02 18:23:59;;;;;;;19.05;8.30;;;;;;;24.48;100.00;101230.84;20958211;28;20056;-70
2023/10/02 18:34:25;;;;;;;21.67;9.48;;;;;;;24.44;100.00;101241.81;20973527;28;20048;-70
2023/10/02 18:44:47;;;;;;;18.70;8.32;;;;;;;24.33;100.00;101238.63;20988978;28;21151;-69
2023/10/02 18:55:12;;;;;;;20.58;9.48;;;;;;;24.26;100.00;101250.53;20953855;28;20049;-70
2023/10/02 19:05:42;;;;;;;19.75;8.32;;;;;;;24.18;100.00;101266.94;20962007;28;20063;-70
2023/10/02 19:16:07;;;;;;;20.67;8.55;;;;;;;24.10;100.00;101269.00;20977269;28;20040;-69
2023/10/02 19:26:33;;;;;;;24.48;9.18;;;;;;;24.04;100.00;101270.09;20945426;28;20048;-69
2023/10/02 19:36:58;;;;;;;18.52;9.32;;;;;;;23.97;100.00;101263.13;20965274;28;20140;-69
2023/10/02 19:47:20;;;;;;;20.83;8.75;;;;;;;23.94;100.00;101267.75;20949821;28;20044;-69
2023/10/02 19:57:46;;;;;;;19.77;8.98;;;;;;;23.94;100.00;101270.44;20930261;28;20064;-69
2023/10/02 20:08:09;;;;;;;23.10;8.43;;;;;;;23.90;100.00;101276.84;20924189;28;20098;-69
2023/10/02 20:18:34;;;;;;;22.92;8.90;;;;;;;23.87;100.00;101267.06;20904668;28;20057;-69
2023/10/02 20:28:56;;;;;;;16.05;7.28;;;;;;;23.82;100.00;101261.81;20937022;28;20072;-69
2023/10/02 20:39:20;;;;;;;23.35;7.88;;;;;;;23.80;100.00;101271.75;20970778;28;20053;-69
2023/10/02 20:49:44;;;;;;;22.10;8.00;;;;;;;23.85;100.00;101268.91;21003420;28;20148;-69
2023/10/02 21:00:14;;;;;;;16.80;6.45;;;;;;;23.89;100.00;101275.09;21018585;28;20570;-70
2023/10/02 21:10:36;;;;;;;18.23;6.82;;;;;;;23.92;100.00;101277.69;20943497;28;20163;-70
2023/10/02 21:21:00;;;;;;;21.23;6.80;;;;;;;24.03;100.00;101283.63;20982454;28;20044;-70
2023/10/02 21:31:24;;;;;;;20.13;6.95;;;;;;;24.01;100.00;101289.09;20968070;28;20048;-69
2023/10/02 21:41:49;;;;;;;21.52;7.50;;;;;;;24.06;100.00;101286.22;20973201;28;20041;-69
2023/10/02 21:52:11;;;;;;;14.80;6.43;;;;;;;24.09;100.00;101288.84;21014788;28;20063;-70
2023/10/02 22:02:35;;;;;;;15.93;6.60;;;;;;;24.08;100.00;101290.66;20985486;28;20518;-69
2023/10/02 22:12:58;;;;;;;16.08;6.93;;;;;;;24.07;100.00;101291.59;21007852;28;20051;-69
2023/10/02 22:23:26;;;;;;;17.08;7.03;;;;;;;24.05;100.00;101282.66;20982295;28;20105;-69
2023/10/02 22:33:49;;;;;;;17.47;6.57;;;;;;;24.04;100.00;101288.97;20939940;28;20488;-69
2023/10/02 22:44:15;;;;;;;21.77;7.78;;;;;;;24.02;100.00;101298.06;21012531;28;20083;-69
2023/10/02 22:54:38;;;;;;;18.70;6.88;;;;;;;23.98;100.00;101299.97;21006498;28;20496;-69
2023/10/02 23:05:04;;;;;;;13.82;5.95;;;;;;;23.94;100.00;101292.91;20979204;28;20080;-69
2023/10/02 23:15:28;;;;;;;15.85;6.20;;;;;;;23.78;100.00;101292.47;20973851;28;20075;-69
2023/10/02 23:25:54;;;;;;;14.93;6.28;;;;;;;23.75;100.00;101289.00;20961710;28;20076;-70
2023/10/02 23:36:17;;;;;;;14.27;6.32;;;;;;;23.65;100.00;101274.91;20974951;28;20580;-69
2023/10/02 23:46:43;;;;;;;18.50;6.85;;;;;;;23.58;100.00;101265.22;20959365;28;20584;-69
2023/10/02 23:57:05;;;;;;;20.25;7.30;;;;;;;23.50;100.00;101261.88;20978844;28;20092;-69
